createdAt,value
2018-09-10T00:01:05.578Z,61.87
2018-09-10T00:03:44.131Z,62.07
2018-09-10T00:06:21.515Z,62.41
2018-09-10T00:08:58.226Z,62.18
2018-09-10T00:11:36.708Z,62.26
2018-09-10T00:14:14.107Z,63.28
2018-09-10T00:16:51.407Z,63.20
2018-09-10T00:19:29.017Z,63.36
2018-09-10T00:22:06.542Z,63.66
2018-09-10T00:24:43.287Z,63.73
2018-09-10T00:27:20.374Z,63.52
2018-09-10T00:29:56.966Z,62.90
2018-09-10T00:32:35.556Z,62.95
2018-09-10T00:35:05.039Z,63.81
2018-09-10T00:37:34.370Z,63.40
2018-09-10T00:40:03.693Z,64.07
2018-09-10T00:42:33.001Z,64.18
2018-09-10T00:45:02.349Z,64.19
2018-09-10T00:47:31.764Z,63.89
2018-09-10T00:50:01.183Z,64.02
2018-09-10T00:52:30.506Z,64.28
2018-09-10T00:54:59.848Z,64.45
2018-09-10T00:57:29.167Z,64.06
2018-09-10T00:59:58.570Z,64.36
2018-09-10T01:02:27.866Z,63.90
2018-09-10T01:04:57.190Z,64.40
2018-09-10T01:07:26.498Z,64.95
2018-09-10T01:09:55.851Z,64.66
2018-09-10T01:12:25.190Z,64.46
2018-09-10T01:14:54.521Z,65.28
2018-09-10T01:17:23.857Z,64.73
2018-09-10T01:19:53.738Z,65.07
2018-09-10T01:22:23.125Z,65.31
2018-09-10T01:24:52.472Z,65.65
2018-09-10T01:27:21.836Z,65.89
2018-09-10T01:29:51.373Z,65.48
2018-09-10T01:32:20.726Z,65.68
2018-09-10T01:34:55.277Z,65.57
2018-09-10T01:37:24.637Z,66.62
2018-09-10T01:39:53.995Z,66.59
2018-09-10T01:42:23.338Z,66.12
2018-09-10T01:44:52.730Z,66.95
2018-09-10T01:47:22.061Z,66.41
2018-09-10T01:49:51.396Z,66.59
2018-09-10T01:52:20.745Z,67.05
2018-09-10T01:54:50.274Z,66.35
2018-09-10T01:57:19.786Z,66.93
2018-09-10T01:59:49.313Z,66.61
2018-09-10T02:02:18.919Z,66.37
2018-09-10T02:04:48.456Z,67.21
2018-09-10T02:07:17.885Z,67.36
2018-09-10T02:09:47.388Z,67.34
2018-09-10T02:12:21.970Z,67.62
2018-09-10T02:14:51.482Z,67.28
2018-09-10T02:17:21.024Z,67.87
2018-09-10T02:19:50.709Z,67.99
2018-09-10T02:22:20.417Z,68.51
2018-09-10T02:24:50.071Z,67.85
2018-09-10T02:27:19.739Z,68.68
2018-09-10T02:29:49.330Z,68.27
2018-09-10T02:32:22.550Z,67.80
2018-09-10T02:34:52.104Z,68.50
2018-09-10T02:37:21.677Z,68.92
2018-09-10T02:39:51.226Z,68.74
2018-09-10T02:42:20.562Z,68.43
2018-09-10T02:44:49.892Z,68.67
2018-09-10T02:47:19.189Z,68.61
2018-09-10T02:49:48.536Z,68.34
2018-09-10T02:52:17.851Z,68.36
2018-09-10T02:54:47.166Z,68.33
2018-09-10T02:57:16.487Z,68.38
2018-09-10T02:59:45.796Z,68.13
2018-09-10T03:02:15.151Z,68.28
2018-09-10T03:04:45.659Z,69.05
2018-09-10T03:07:16.002Z,69.28
2018-09-10T03:09:45.356Z,68.62
2018-09-10T03:12:29.433Z,68.69
2018-09-10T03:14:58.766Z,69.56
2018-09-10T03:17:28.386Z,69.41
2018-09-10T03:19:58.270Z,69.02
2018-09-10T03:22:27.608Z,69.18
2018-09-10T03:24:56.965Z,69.98
2018-09-10T03:27:26.282Z,69.06
2018-09-10T03:29:55.626Z,69.29
2018-09-10T03:32:24.941Z,70.29
2018-09-10T03:34:54.270Z,70.26
2018-09-10T03:37:23.577Z,69.93
2018-09-10T03:39:52.939Z,70.45
2018-09-10T03:42:22.282Z,70.54
2018-09-10T03:44:51.624Z,70.70
2018-09-10T03:47:21.007Z,69.59
2018-09-10T03:49:50.309Z,70.22
2018-09-10T03:52:19.621Z,70.21
2018-09-10T03:54:48.942Z,71.28
2018-09-10T03:57:18.282Z,71.14
2018-09-10T03:59:47.636Z,71.10
2018-09-10T04:02:16.964Z,71.53
2018-09-10T04:04:46.325Z,71.91
2018-09-10T04:07:15.641Z,71.91
2018-09-10T04:12:26.395Z,71.97
2018-09-10T04:15:05.312Z,72.29
2018-09-10T04:17:34.776Z,73.00
2018-09-10T04:20:08.170Z,72.67
2018-09-10T04:22:38.277Z,72.07
2018-09-10T04:25:08.085Z,72.43
2018-09-10T04:27:38.105Z,72.75
2018-09-10T04:30:12.378Z,73.15
2018-09-10T04:32:41.764Z,72.33
2018-09-10T04:35:11.845Z,72.85
2018-09-10T04:37:41.577Z,73.55
2018-09-10T04:40:11.074Z,72.98
2018-09-10T04:42:40.611Z,72.65
2018-09-10T04:45:09.981Z,73.57
2018-09-10T04:47:39.345Z,73.63
2018-09-10T04:50:08.790Z,73.16
2018-09-10T04:52:38.163Z,73.50
2018-09-10T04:55:09.138Z,74.06
2018-09-10T04:57:38.553Z,73.89
2018-09-10T05:00:08.811Z,73.24
2018-09-10T05:02:38.170Z,73.62
2018-09-10T05:05:07.681Z,73.45
2018-09-10T05:07:37.046Z,74.10
2018-09-10T05:10:09.765Z,73.87
2018-09-10T05:12:39.228Z,74.06
2018-09-10T05:15:08.737Z,74.25
2018-09-10T05:17:38.213Z,74.60
2018-09-10T05:20:08.496Z,74.70
2018-09-10T05:22:37.958Z,75.65
2018-09-10T05:25:07.398Z,75.28
2018-09-10T05:27:36.798Z,75.89
2018-09-10T05:30:06.252Z,75.28
2018-09-10T05:32:35.759Z,76.15
2018-09-10T05:35:06.220Z,76.59
2018-09-10T05:37:35.625Z,75.62
2018-09-10T05:40:09.150Z,76.43
2018-09-10T05:42:38.659Z,76.61
2018-09-10T05:45:11.827Z,76.37
2018-09-10T05:47:41.707Z,77.00
2018-09-10T05:50:12.033Z,76.82
2018-09-10T05:52:41.417Z,76.40
2018-09-10T05:55:10.884Z,76.51
2018-09-10T05:57:40.708Z,77.34
2018-09-10T06:00:11.125Z,77.04
2018-09-10T06:02:40.507Z,76.76
2018-09-10T06:05:09.911Z,76.59
2018-09-10T06:07:39.293Z,77.35
2018-09-10T06:10:08.679Z,76.33
2018-09-10T06:12:38.128Z,76.81
2018-09-10T06:15:08.738Z,75.78
2018-09-10T06:17:38.144Z,76.45
2018-09-10T06:20:07.551Z,75.57
2018-09-10T06:22:36.915Z,75.63
2018-09-10T06:25:07.157Z,75.25
2018-09-10T06:27:36.558Z,75.85
2018-09-10T06:30:07.038Z,74.76
2018-09-10T06:32:39.202Z,75.31
2018-09-10T06:35:08.721Z,74.66
2018-09-10T06:37:38.137Z,74.55
2018-09-10T06:40:07.677Z,74.43
2018-09-10T06:42:37.095Z,74.20
2018-09-10T06:45:06.702Z,73.91
2018-09-10T06:47:36.106Z,73.14
2018-09-10T06:50:06.601Z,73.83
2018-09-10T06:52:35.946Z,73.13
2018-09-10T06:55:05.796Z,73.68
2018-09-10T06:57:35.488Z,73.42
2018-09-10T07:00:07.594Z,73.64
2018-09-10T07:02:36.967Z,72.84
2018-09-10T07:05:06.502Z,73.19
2018-09-10T07:07:35.944Z,73.46
2018-09-10T07:10:06.871Z,72.60
2018-09-10T07:12:36.395Z,72.47
2018-09-10T07:15:06.177Z,72.37
2018-09-10T07:17:35.757Z,72.49
2018-09-10T07:20:06.625Z,72.81
2018-09-10T07:22:37.364Z,72.70
2018-09-10T07:25:06.867Z,72.26
2018-09-10T07:27:36.262Z,71.41
2018-09-10T07:30:07.078Z,71.81
2018-09-10T07:32:36.489Z,71.65
2018-09-10T07:35:06.325Z,70.90
2018-09-10T07:37:35.660Z,71.02
2018-09-10T07:40:06.341Z,71.15
2018-09-10T07:42:35.867Z,70.64
2018-09-10T07:45:05.443Z,69.87
2018-09-10T07:47:35.677Z,69.56
2018-09-10T07:50:06.439Z,69.70
2018-09-10T07:52:36.799Z,69.97
2018-09-10T07:55:06.810Z,69.03
2018-09-10T07:57:36.245Z,69.32
2018-09-10T08:00:06.460Z,69.57
2018-09-10T08:02:35.969Z,68.83
2018-09-10T08:05:05.629Z,69.20
2018-09-10T08:07:34.997Z,67.93
2018-09-10T08:10:05.041Z,68.20
2018-09-10T08:12:34.710Z,67.90
2018-09-10T08:15:04.101Z,66.49
2018-09-10T08:17:33.537Z,66.21
2018-09-10T08:20:02.905Z,65.95
2018-09-10T08:22:33.561Z,65.64
2018-09-10T08:25:03.278Z,65.64
2018-09-10T08:27:32.802Z,65.51
2018-09-10T08:30:02.379Z,65.23
2018-09-10T08:32:32.495Z,65.80
2018-09-10T08:35:01.963Z,65.03
2018-09-10T08:37:31.426Z,65.46
2018-09-10T08:40:00.844Z,64.46
2018-09-10T08:42:30.294Z,64.90
2018-09-10T08:44:59.794Z,63.43
2018-09-10T08:47:29.167Z,63.01
2018-09-10T08:49:58.588Z,62.96
2018-09-10T08:52:27.988Z,62.51
2018-09-10T08:54:57.665Z,61.82
2018-09-10T08:57:27.326Z,61.40
2018-09-10T08:59:56.742Z,60.92
2018-09-10T09:02:26.224Z,60.21
2018-09-10T09:04:55.652Z,59.57
2018-09-10T09:07:25.080Z,59.35
2018-09-10T09:09:54.485Z,59.72
2018-09-10T09:12:24.097Z,58.69
2018-09-10T09:14:53.490Z,58.43
2018-09-10T09:17:22.879Z,58.70
2018-09-10T09:19:52.476Z,58.38
2018-09-10T09:22:21.928Z,58.69
2018-09-10T09:24:51.646Z,57.23
2018-09-10T09:27:21.200Z,57.05
2018-09-10T09:29:50.621Z,57.45
2018-09-10T09:32:20.023Z,56.37
2018-09-10T09:34:54.634Z,56.93
2018-09-10T09:37:29.879Z,55.95
2018-09-10T09:40:04.740Z,56.15
2018-09-10T09:42:39.308Z,56.00
2018-09-10T09:45:14.019Z,56.00
2018-09-10T09:47:43.489Z,56.16
2018-09-10T09:50:13.002Z,56.84
2018-09-10T09:52:42.491Z,55.61
2018-09-10T09:55:11.996Z,55.71
2018-09-10T09:57:42.454Z,55.00
2018-09-10T10:00:15.791Z,55.18
2018-09-10T10:02:50.322Z,54.48
2018-09-10T10:05:21.006Z,54.14
2018-09-10T10:07:50.897Z,53.09
2018-09-10T10:10:20.725Z,52.84
2018-09-10T10:12:50.231Z,52.39
2018-09-10T10:15:20.039Z,52.26
2018-09-10T10:17:51.583Z,51.88
2018-09-10T10:20:20.983Z,51.90
2018-09-10T10:22:50.453Z,52.10
2018-09-10T10:25:20.422Z,52.16
2018-09-10T10:27:49.870Z,52.35
2018-09-10T10:30:19.339Z,51.43
2018-09-10T10:32:48.761Z,51.89
2018-09-10T10:35:18.373Z,50.88
2018-09-10T10:37:47.794Z,50.99
2018-09-10T10:40:17.158Z,51.47
2018-09-10T10:42:46.678Z,52.08
2018-09-10T10:45:16.143Z,52.06
2018-09-10T10:47:45.546Z,52.27
2018-09-10T10:50:15.081Z,51.89
2018-09-10T10:52:44.557Z,52.31
2018-09-10T10:55:14.298Z,50.90
2018-09-10T10:57:43.761Z,51.16
2018-09-10T11:00:13.275Z,50.72
2018-09-10T11:02:42.680Z,50.77
2018-09-10T11:05:12.258Z,50.18
2018-09-10T11:07:41.674Z,50.29
2018-09-10T11:10:11.229Z,50.02
2018-09-10T11:12:40.622Z,49.92
2018-09-10T11:15:10.138Z,49.92
2018-09-10T11:17:39.562Z,49.84
2018-09-10T11:20:09.052Z,48.90
2018-09-10T11:22:39.617Z,49.81
2018-09-10T11:25:09.137Z,49.57
2018-09-10T11:27:38.630Z,49.79
2018-09-10T11:30:08.061Z,49.44
2018-09-10T11:32:37.408Z,49.98
2018-09-10T11:35:07.450Z,51.18
2018-09-10T11:37:37.766Z,50.37
2018-09-10T11:40:07.167Z,50.27
2018-09-10T11:42:36.830Z,50.87
2018-09-10T11:45:06.417Z,50.41
2018-09-10T11:47:35.956Z,50.01
2018-09-10T11:50:06.821Z,49.50
2018-09-10T11:52:36.243Z,49.83
2018-09-10T11:55:06.858Z,49.34
2018-09-10T11:57:36.286Z,49.59
2018-09-10T12:00:06.315Z,50.83
2018-09-10T12:02:35.684Z,50.33
2018-09-10T12:05:06.262Z,50.11
2018-09-10T12:07:35.721Z,49.89
2018-09-10T12:10:06.765Z,48.91
2018-09-10T12:12:36.160Z,48.79
2018-09-10T12:15:06.411Z,48.73
2018-09-10T12:17:35.805Z,47.40
2018-09-10T12:20:06.261Z,47.89
2018-09-10T12:22:36.146Z,47.60
2018-09-10T12:25:06.168Z,49.09
2018-09-10T12:27:35.841Z,49.65
2018-09-10T12:30:06.583Z,49.68
2018-09-10T12:32:35.948Z,50.27
2018-09-10T12:35:05.292Z,49.54
2018-09-10T12:37:34.627Z,49.49
2018-09-10T12:40:06.000Z,49.40
2018-09-10T12:42:35.426Z,50.45
2018-09-10T12:45:06.429Z,49.76
2018-09-10T12:47:35.832Z,50.72
2018-09-10T12:50:06.484Z,50.34
2018-09-10T12:52:35.894Z,50.38
2018-09-10T12:55:06.176Z,50.50
2018-09-10T12:57:35.582Z,49.87
2018-09-10T13:00:06.677Z,50.18
2018-09-10T13:02:36.367Z,49.87
2018-09-10T13:05:06.546Z,50.36
2018-09-10T13:07:36.055Z,49.76
2018-09-10T13:10:06.713Z,49.87
2018-09-10T13:12:36.070Z,50.69
2018-09-10T13:15:06.122Z,50.11
2018-09-10T13:17:35.483Z,50.68
2018-09-10T13:20:06.198Z,50.70
2018-09-10T13:22:35.618Z,50.85
2018-09-10T13:25:06.368Z,50.83
2018-09-10T13:27:35.808Z,50.80
2018-09-10T13:30:05.300Z,50.13
2018-09-10T13:32:34.689Z,50.34
2018-09-10T13:35:04.106Z,49.89
2018-09-10T13:37:33.488Z,49.61
2018-09-10T13:40:02.887Z,48.92
2018-09-10T13:42:32.353Z,48.72
2018-09-10T13:45:01.799Z,47.55
2018-09-10T13:47:31.159Z,48.51
2018-09-10T13:50:00.489Z,48.30
2018-09-10T13:52:29.863Z,48.11
2018-09-10T13:54:59.415Z,48.96
2018-09-10T13:57:28.761Z,49.14
2018-09-10T13:59:58.198Z,49.11
2018-09-10T14:02:27.553Z,49.63
2018-09-10T14:04:56.868Z,49.63
2018-09-10T14:07:26.284Z,49.17
2018-09-10T14:09:55.765Z,49.70
2018-09-10T14:12:25.206Z,49.58
2018-09-10T14:14:54.654Z,49.38
2018-09-10T14:17:24.018Z,49.30
2018-09-10T14:19:54.359Z,49.41
2018-09-10T14:22:23.929Z,50.72
2018-09-10T14:24:53.333Z,50.90
2018-09-10T14:27:22.748Z,50.75
2018-09-10T14:29:57.249Z,50.44
2018-09-10T14:32:26.648Z,50.14
2018-09-10T14:34:56.050Z,49.97
2018-09-10T14:37:25.437Z,50.07
2018-09-10T14:39:54.802Z,48.92
2018-09-10T14:42:24.168Z,47.44
2018-09-10T14:44:57.171Z,47.68
2018-09-10T14:47:26.539Z,47.61
2018-09-10T14:49:55.986Z,47.15
2018-09-10T14:52:25.469Z,47.62
2018-09-10T14:54:54.853Z,47.52
2018-09-10T14:57:24.257Z,47.09
2018-09-10T14:59:53.679Z,47.00
2018-09-10T15:02:23.045Z,46.93
2018-09-10T15:04:52.397Z,46.58
2018-09-10T15:07:21.825Z,46.87
2018-09-10T15:09:51.315Z,46.83
2018-09-10T15:12:20.719Z,46.38
2018-09-10T15:14:50.079Z,46.71
2018-09-10T15:17:19.529Z,46.37
2018-09-10T15:19:49.756Z,46.80
2018-09-10T15:22:19.142Z,46.85
2018-09-10T15:24:48.589Z,46.58
2018-09-10T15:27:17.997Z,47.22
2018-09-10T15:29:47.713Z,47.50
2018-09-10T15:32:17.094Z,48.15
2018-09-10T15:34:46.550Z,47.97
2018-09-10T15:37:16.817Z,48.41
2018-09-10T15:39:46.438Z,48.89
2018-09-10T15:42:15.830Z,49.40
2018-09-10T15:44:45.452Z,49.63
2018-09-10T15:47:14.837Z,49.43
2018-09-10T15:49:44.326Z,50.10
2018-09-10T15:52:13.723Z,49.74
2018-09-10T15:54:43.225Z,50.29
2018-09-10T15:57:12.616Z,50.41
2018-09-10T15:59:42.046Z,50.82
2018-09-10T16:02:11.451Z,50.62
2018-09-10T16:04:41.018Z,51.14
2018-09-10T16:07:10.529Z,51.98
2018-09-10T16:09:39.967Z,51.71
2018-09-10T16:12:09.523Z,52.25
2018-09-10T16:14:38.956Z,52.31
2018-09-10T16:17:08.490Z,51.76
2018-09-10T16:19:37.853Z,51.94
2018-09-10T16:22:07.207Z,52.39
2018-09-10T16:24:36.642Z,51.84
2018-09-10T16:27:09.788Z,52.52
2018-09-10T16:29:39.429Z,52.54
2018-09-10T16:32:10.377Z,52.26
2018-09-10T16:34:39.757Z,52.43
2018-09-10T16:37:09.294Z,52.14
2018-09-10T16:39:38.661Z,52.15
2018-09-10T16:42:08.110Z,52.91
2018-09-10T16:44:37.524Z,52.57
2018-09-10T16:47:06.927Z,52.80
2018-09-10T16:49:36.516Z,53.37
2018-09-10T16:52:06.298Z,53.59
2018-09-10T16:54:35.729Z,53.84
2018-09-10T16:57:06.425Z,53.57
2018-09-10T16:59:35.845Z,54.31
2018-09-10T17:02:06.630Z,54.45
2018-09-10T17:04:36.032Z,54.16
2018-09-10T17:07:07.126Z,54.22
2018-09-10T17:09:36.653Z,54.61
2018-09-10T17:12:06.295Z,55.33
2018-09-10T17:14:37.824Z,54.82
2018-09-10T17:17:08.151Z,55.36
2018-09-10T17:19:37.567Z,55.26
2018-09-10T17:22:07.852Z,56.20
2018-09-10T17:24:37.274Z,55.74
2018-09-10T17:27:06.661Z,56.42
2018-09-10T17:29:36.057Z,57.04
2018-09-10T17:32:06.282Z,57.04
2018-09-10T17:34:35.711Z,56.68
2018-09-10T17:37:06.508Z,57.38
2018-09-10T17:39:36.256Z,57.32
2018-09-10T17:42:06.594Z,57.40
2018-09-10T17:44:35.981Z,58.18
2018-09-10T17:47:06.553Z,58.41
2018-09-10T17:49:35.934Z,58.67
2018-09-10T17:52:06.283Z,58.17
2018-09-10T17:54:36.322Z,58.41
2018-09-10T17:57:07.347Z,58.59
2018-09-10T17:59:36.814Z,59.24
2018-09-10T18:02:06.236Z,58.75
2018-09-10T18:04:35.634Z,58.95
2018-09-10T18:07:06.314Z,60.07
2018-09-10T18:09:36.115Z,60.02
2018-09-10T18:12:06.735Z,60.08
2018-09-10T18:14:36.190Z,60.28
2018-09-10T18:17:06.456Z,59.67
2018-09-10T18:19:35.878Z,60.45
2018-09-10T18:22:06.316Z,60.29
2018-09-10T18:24:35.704Z,60.19
2018-09-10T18:27:06.438Z,60.15
2018-09-10T18:29:35.777Z,60.78
2018-09-10T18:32:08.828Z,60.91
2018-09-10T18:34:38.385Z,60.39
2018-09-10T18:37:07.805Z,60.40
2018-09-10T18:39:37.352Z,60.63
2018-09-10T18:42:06.776Z,60.77
2018-09-10T18:44:36.301Z,61.18
2018-09-10T18:47:06.324Z,60.90
2018-09-10T18:49:35.732Z,61.04
2018-09-10T18:52:07.311Z,60.95
2018-09-10T18:54:36.945Z,61.30
2018-09-10T18:57:06.628Z,61.21
2018-09-10T18:59:36.030Z,61.57
2018-09-10T19:02:06.306Z,61.87
2018-09-10T19:04:35.756Z,61.89
2018-09-10T19:07:06.160Z,62.24
2018-09-10T19:09:35.539Z,62.16
2018-09-10T19:12:06.253Z,62.24
2018-09-10T19:14:35.940Z,62.31
2018-09-10T19:17:07.491Z,62.03
2018-09-10T19:19:36.922Z,62.49
2018-09-10T19:22:06.360Z,62.63
2018-09-10T19:24:37.461Z,61.97
2018-09-10T19:27:06.944Z,62.30
2018-09-10T19:29:36.480Z,62.67
2018-09-10T19:32:06.695Z,62.27
2018-09-10T19:34:36.131Z,62.62
2018-09-10T19:37:06.414Z,62.29
2018-09-10T19:39:35.927Z,62.43
2018-09-10T19:42:06.528Z,62.72
2018-09-10T19:44:36.016Z,63.30
2018-09-10T19:47:06.183Z,63.52
2018-09-10T19:49:35.620Z,63.61
2018-09-10T19:52:07.337Z,63.75
2018-09-10T19:54:36.823Z,62.98
2018-09-10T19:57:06.668Z,63.75
2018-09-10T19:59:36.881Z,63.85
2018-09-10T20:02:06.717Z,64.27
2018-09-10T20:04:36.164Z,64.23
2018-09-10T20:07:06.778Z,63.67
2018-09-10T20:09:37.417Z,63.81
2018-09-10T20:12:06.938Z,63.61
2018-09-10T20:14:37.509Z,63.83
2018-09-10T20:17:06.922Z,64.00
2018-09-10T20:19:36.448Z,64.45
2018-09-10T20:22:08.595Z,64.89
2018-09-10T20:24:38.063Z,65.24
2018-09-10T20:27:07.441Z,64.70
2018-09-10T20:29:36.790Z,64.97
2018-09-10T20:32:08.302Z,65.19
2018-09-10T20:34:37.759Z,65.40
2018-09-10T20:37:07.220Z,64.73
2018-09-10T20:39:36.761Z,65.46
2018-09-10T20:42:06.278Z,65.38
2018-09-10T20:44:35.690Z,64.84
2018-09-10T20:47:07.049Z,65.21
2018-09-10T20:49:37.021Z,65.83
2018-09-10T20:52:06.535Z,65.65
2018-09-10T20:54:40.103Z,65.23
2018-09-10T20:57:09.504Z,65.84
2018-09-10T20:59:38.896Z,65.40
2018-09-10T21:02:12.082Z,65.03
2018-09-10T21:04:42.716Z,65.23
2018-09-10T21:07:12.174Z,65.39
2018-09-10T21:09:41.572Z,65.16
2018-09-10T21:12:11.043Z,65.48
2018-09-10T21:14:40.801Z,65.52
2018-09-10T21:17:10.506Z,65.54
2018-09-10T21:19:39.954Z,65.36
2018-09-10T21:22:09.379Z,65.77
2018-09-10T21:24:38.799Z,65.76
2018-09-10T21:27:09.323Z,65.50
2018-09-10T21:29:39.966Z,65.69
2018-09-10T21:32:10.722Z,65.73
2018-09-10T21:34:40.113Z,66.17
2018-09-10T21:37:09.503Z,66.49
2018-09-10T21:39:40.603Z,66.67
2018-09-10T21:42:10.117Z,65.94
2018-09-10T21:44:39.513Z,66.52
2018-09-10T21:47:13.573Z,65.95
2018-09-10T21:49:43.025Z,66.14
2018-09-10T21:52:12.403Z,65.81
2018-09-10T21:54:41.786Z,66.67
2018-09-10T21:57:11.525Z,66.26
2018-09-10T21:59:41.833Z,66.22
2018-09-10T22:02:11.203Z,66.31
2018-09-10T22:04:40.650Z,67.20
2018-09-10T22:07:10.999Z,66.59
2018-09-10T22:09:40.401Z,66.69
2018-09-10T22:12:10.011Z,67.18
2018-09-10T22:14:39.421Z,67.08
2018-09-10T22:17:08.942Z,66.78
2018-09-10T22:19:38.295Z,66.95
2018-09-10T22:22:07.788Z,67.67
2018-09-10T22:24:37.180Z,68.02
2018-09-10T22:27:06.506Z,68.12
2018-09-10T22:29:35.957Z,68.09
2018-09-10T22:32:06.417Z,68.18
2018-09-10T22:34:35.753Z,67.98
2018-09-10T22:37:06.679Z,67.79
2018-09-10T22:39:36.037Z,68.37
2018-09-10T22:42:07.136Z,67.86
2018-09-10T22:44:37.178Z,68.31
2018-09-10T22:47:06.747Z,68.75
2018-09-10T22:49:36.955Z,68.19
2018-09-10T22:52:06.911Z,68.13
2018-09-10T22:54:36.285Z,68.69
2018-09-10T22:57:06.314Z,68.78
2018-09-10T22:59:37.877Z,68.90
2018-09-10T23:02:07.371Z,69.39
2018-09-10T23:04:36.693Z,69.78
2018-09-10T23:07:07.497Z,69.27
2018-09-10T23:09:36.846Z,68.97
2018-09-10T23:12:13.918Z,69.22
2018-09-10T23:14:51.079Z,69.27
2018-09-10T23:17:30.061Z,69.70
2018-09-10T23:20:03.751Z,69.86
2018-09-10T23:22:42.338Z,69.94
2018-09-10T23:25:20.397Z,69.84
2018-09-10T23:27:56.162Z,70.22
2018-09-10T23:30:34.276Z,70.13
2018-09-10T23:33:11.577Z,70.40
2018-09-10T23:35:49.612Z,70.61
2018-09-10T23:38:27.616Z,71.04
2018-09-10T23:41:04.010Z,71.04
2018-09-10T23:43:41.751Z,70.71
2018-09-10T23:46:21.798Z,71.20
2018-09-10T23:49:00.838Z,70.56
2018-09-10T23:51:39.557Z,70.56
2018-09-10T23:54:18.819Z,70.62
2018-09-10T23:56:59.504Z,70.97
2018-09-10T23:59:38.454Z,71.41
